Time;durP1;ratioP1;P1;durP2;ratioP2;P2;SDS_P1;SDS_P2;PMS_P1;PMS_P2;Temp;Humidity;BMP_temperature;BMP_pressure;BME280_temperature;BME280_humidity;BME280_pressure;Samples;Min_cycle;Max_cycle;Signal;HPM_P1;HPM_P2
2020/12/15 00:00:31;;;;;;;19.88;14.30;;;;;;;8.08;66.54;94105.56;5004588;28;20050;-80
2020/12/15 00:02:57;;;;;;;23.67;16.27;;;;;;;8.13;66.54;94102.94;5005189;28;20416;-79
2020/12/15 00:05:22;;;;;;;19.70;13.57;;;;;;;8.12;66.43;94106.63;5006493;28;20050;-79
2020/12/15 00:07:48;;;;;;;16.45;12.32;;;;;;;8.14;66.72;94112.41;5005613;28;20037;-79
2020/12/15 00:10:13;;;;;;;21.00;13.73;;;;;;;8.12;66.54;94108.47;5008062;28;20479;-79
2020/12/15 00:12:41;;;;;;;19.73;12.68;;;;;;;8.10;66.60;94110.59;5005945;28;20042;-79
2020/12/15 00:15:07;;;;;;;16.63;12.32;;;;;;;8.07;66.71;94104.00;4993543;28;20034;-79
2020/12/15 00:17:32;;;;;;;19.30;14.18;;;;;;;8.09;66.90;94109.78;4984646;28;20484;-80
2020/12/15 00:19:58;;;;;;;18.25;13.70;;;;;;;8.09;66.62;94109.78;4986720;28;20018;-79
2020/12/15 00:22:23;;;;;;;16.42;12.30;;;;;;;8.10;66.96;94095.59;4987895;28;20037;-79
2020/12/15 00:24:49;;;;;;;19.42;15.27;;;;;;;8.07;66.87;94096.09;5006964;28;20049;-79
2020/12/15 00:27:14;;;;;;;17.80;13.48;;;;;;;8.15;66.68;94098.22;5007586;28;20038;-79
2020/12/15 00:29:40;;;;;;;16.92;13.35;;;;;;;8.17;66.94;94105.81;5009073;28;20569;-79
2020/12/15 00:32:05;;;;;;;14.15;11.80;;;;;;;8.18;66.86;94108.19;5005337;28;20184;-79
2020/12/15 00:34:31;;;;;;;18.45;12.10;;;;;;;8.19;66.79;94107.16;5009274;28;20029;-79
2020/12/15 00:36:57;;;;;;;19.95;13.50;;;;;;;8.20;66.57;94106.09;5001366;28;20494;-79
2020/12/15 00:39:22;;;;;;;16.23;12.38;;;;;;;8.20;66.81;94100.03;5000086;28;20074;-79
2020/12/15 00:41:49;;;;;;;17.60;12.35;;;;;;;8.17;66.67;94096.09;4995399;28;20145;-79
2020/12/15 00:44:15;;;;;;;17.92;12.27;;;;;;;8.22;66.60;94106.59;5007593;28;20053;-79
2020/12/15 00:46:40;;;;;;;16.98;12.75;;;;;;;8.17;66.35;94085.56;5000973;28;20054;-79
2020/12/15 00:49:06;;;;;;;16.10;12.27;;;;;;;8.24;66.59;94093.19;5012475;28;20502;-79
2020/12/15 00:51:31;;;;;;;14.35;11.25;;;;;;;8.33;66.44;94107.41;5008607;28;20105;-79
2020/12/15 00:53:57;;;;;;;16.27;12.38;;;;;;;8.34;66.53;94090.56;5004529;28;20960;-80
2020/12/15 00:56:22;;;;;;;17.42;11.82;;;;;;;8.23;66.53;94073.97;5007007;28;20621;-79
2020/12/15 00:58:48;;;;;;;16.52;11.65;;;;;;;8.32;66.66;94086.59;5006015;28;20060;-79
2020/12/15 01:01:14;;;;;;;17.40;12.82;;;;;;;8.35;66.57;94092.16;5011129;28;20167;-79
2020/12/15 01:03:39;;;;;;;15.80;11.82;;;;;;;8.29;66.61;94098.44;5007638;28;20045;-79
2020/12/15 01:06:05;;;;;;;18.73;12.65;;;;;;;8.24;66.48;94091.34;5007274;28;20590;-79
2020/12/15 01:08:31;;;;;;;15.35;11.45;;;;;;;8.16;66.53;94083.22;5006467;28;20041;-80
2020/12/15 01:10:56;;;;;;;16.40;11.77;;;;;;;8.18;66.36;94084.50;5004139;28;20025;-80
2020/12/15 01:13:22;;;;;;;16.65;12.05;;;;;;;8.17;66.60;94090.81;5003485;28;20494;-79
2020/12/15 01:15:47;;;;;;;18.58;13.52;;;;;;;8.16;66.67;94089.22;4977430;28;20053;-79
2020/12/15 01:18:13;;;;;;;18.08;13.05;;;;;;;8.18;66.60;94083.72;4996099;28;20034;-79
2020/12/15 01:20:38;;;;;;;18.55;12.90;;;;;;;8.18;66.36;94087.13;5003447;28;20046;-79
2020/12/15 01:23:04;;;;;;;17.45;11.77;;;;;;;8.14;66.48;94080.81;5002260;28;20041;-79
2020/12/15 01:25:31;;;;;;;19.23;12.73;;;;;;;8.13;66.51;94083.72;5004022;28;20030;-79
2020/12/15 01:27:56;;;;;;;15.48;12.18;;;;;;;8.15;66.51;94090.31;5004437;28;20052;-80
2020/12/15 01:30:22;;;;;;;16.35;10.68;;;;;;;8.12;66.33;94085.56;5004225;28;20459;-80
2020/12/15 01:32:47;;;;;;;16.48;11.82;;;;;;;8.09;66.05;94078.19;5001658;28;20085;-78
2020/12/15 01:35:13;;;;;;;16.48;11.48;;;;;;;8.18;66.25;94094.25;5004560;28;20134;-79
2020/12/15 01:37:38;;;;;;;15.75;11.55;;;;;;;8.16;66.26;94099.75;5002976;28;20034;-79
2020/12/15 01:40:04;;;;;;;17.20;11.68;;;;;;;8.19;66.67;94101.09;5002263;28;20040;-78
2020/12/15 01:42:30;;;;;;;18.90;14.02;;;;;;;8.17;66.50;94111.88;4999964;28;20076;-79
2020/12/15 01:44:56;;;;;;;17.77;12.30;;;;;;;8.15;66.51;94110.56;5001781;28;20033;-79
2020/12/15 01:47:22;;;;;;;17.20;12.38;;;;;;;8.07;66.47;94101.34;4994228;28;20050;-78
2020/12/15 01:49:48;;;;;;;18.77;14.18;;;;;;;8.11;66.66;94120.81;4984693;28;20022;-79
2020/12/15 01:52:15;;;;;;;19.77;14.57;;;;;;;8.08;66.57;94099.50;5005123;28;20026;-79
2020/12/15 01:54:41;;;;;;;19.98;13.07;;;;;;;8.10;66.33;94111.38;5001275;28;20126;-78
2020/12/15 01:57:07;;;;;;;21.35;15.02;;;;;;;8.09;66.53;94112.41;5016175;28;20099;-79
2020/12/15 01:59:33;;;;;;;20.58;13.27;;;;;;;8.09;66.23;94103.72;5003156;28;20050;-79
2020/12/15 02:01:59;;;;;;;16.40;11.63;;;;;;;8.05;66.21;94107.94;5000536;28;20478;-79
2020/12/15 02:04:24;;;;;;;16.73;12.10;;;;;;;8.02;66.19;94096.09;5018762;28;20533;-79
2020/12/15 02:06:52;;;;;;;22.77;14.18;;;;;;;7.99;66.50;94098.47;5013901;28;20042;-78
2020/12/15 02:09:18;;;;;;;17.38;11.68;;;;;;;8.04;66.55;94109.78;4994805;28;20033;-79
2020/12/15 02:11:46;;;;;;;16.83;11.68;;;;;;;8.00;66.46;94105.31;5002734;28;20042;-79
2020/12/15 02:14:13;;;;;;;18.00;12.65;;;;;;;8.03;66.26;94105.56;5001635;28;20050;-80
2020/12/15 02:16:40;;;;;;;20.42;12.98;;;;;;;8.04;66.29;94112.44;5004224;28;20629;-80
2020/12/15 02:19:07;;;;;;;21.10;14.13;;;;;;;8.09;66.28;94106.38;5002285;28;20060;-80
2020/12/15 02:21:50;;;;;;;21.63;14.25;;;;;;;8.02;66.33;94090.84;5003632;28;20033;-80
2020/12/15 02:24:15;;;;;;;22.55;14.45;;;;;;;8.07;66.13;94106.63;5001241;28;20045;-80
2020/12/15 02:26:41;;;;;;;18.95;13.32;;;;;;;7.97;66.45;94096.09;5004395;28;20044;-81
2020/12/15 02:29:07;;;;;;;17.80;12.23;;;;;;;8.06;66.20;94110.31;5000610;28;20048;-80
2020/12/15 02:31:33;;;;;;;19.27;11.90;;;;;;;8.03;66.07;94099.53;5004037;28;20060;-80
2020/12/15 02:33:58;;;;;;;14.88;11.32;;;;;;;8.05;66.08;94105.31;5002014;28;20033;-80
2020/12/15 02:36:27;;;;;;;18.33;11.98;;;;;;;8.11;66.19;94109.53;4988450;28;20038;-80
2020/12/15 02:38:52;;;;;;;15.32;11.35;;;;;;;8.08;66.13;94102.94;4990047;28;20096;-81
2020/12/15 02:41:18;;;;;;;13.63;10.63;;;;;;;8.14;65.99;94111.63;4997591;28;20434;-80
2020/12/15 02:43:43;;;;;;;16.38;10.88;;;;;;;8.12;65.70;94103.19;4981663;28;20031;-80
2020/12/15 02:46:09;;;;;;;16.35;10.90;;;;;;;8.12;65.92;94097.94;5003838;28;20140;-80
2020/12/15 02:48:34;;;;;;;13.93;9.68;;;;;;;8.12;65.97;94106.63;5001520;28;20494;-80
2020/12/15 02:51:00;;;;;;;19.38;12.48;;;;;;;8.07;65.79;94104.00;5001433;28;20042;-80
2020/12/15 02:53:25;;;;;;;38.28;19.88;;;;;;;8.11;65.87;94105.03;5009514;28;20398;-80
2020/12/15 02:55:50;;;;;;;38.67;21.42;;;;;;;8.08;65.88;94099.50;4984562;28;20030;-80
2020/12/15 02:58:16;;;;;;;17.00;11.50;;;;;;;8.12;65.97;94114.50;5016100;28;20049;-80
2020/12/15 03:00:42;;;;;;;13.10;10.35;;;;;;;8.06;66.23;94104.28;5001463;28;20060;-80
2020/12/15 03:03:07;;;;;;;12.95;9.93;;;;;;;8.03;65.77;94105.56;5000851;28;20398;-80
2020/12/15 03:05:33;;;;;;;17.45;10.40;;;;;;;8.09;65.94;94104.53;5002856;28;20077;-80
2020/12/15 03:07:58;;;;;;;14.60;10.88;;;;;;;8.11;65.97;94115.56;5002153;28;20125;-80
2020/12/15 03:10:24;;;;;;;14.55;9.50;;;;;;;8.06;65.81;94106.91;5004412;28;20584;-80
2020/12/15 03:12:50;;;;;;;14.50;10.27;;;;;;;8.05;65.90;94119.28;5002247;28;20510;-80
2020/12/15 03:15:17;;;;;;;13.82;9.80;;;;;;;7.98;66.13;94116.09;5001896;28;20069;-80
2020/12/15 03:17:42;;;;;;;14.85;11.13;;;;;;;8.00;66.12;94121.91;5003179;28;20415;-80
2020/12/15 03:20:08;;;;;;;15.27;10.25;;;;;;;7.90;66.17;94111.38;4998190;28;20068;-80
2020/12/15 03:22:33;;;;;;;15.38;10.13;;;;;;;7.81;66.31;94099.81;4983407;28;20368;-80
2020/12/15 03:24:59;;;;;;;14.43;10.60;;;;;;;7.98;66.23;94129.25;4981787;28;20046;-80
2020/12/15 03:27:24;;;;;;;15.70;11.43;;;;;;;8.01;66.20;94133.22;4996395;28;20081;-80
2020/12/15 03:29:49;;;;;;;13.52;9.82;;;;;;;8.02;66.34;94135.56;5000988;28;20049;-80
2020/12/15 03:32:15;;;;;;;11.90;9.15;;;;;;;7.94;66.20;94128.22;5001651;28;20045;-80
2020/12/15 03:34:40;;;;;;;13.10;9.35;;;;;;;8.00;66.20;94137.69;5001103;28;20026;-80
2020/12/15 03:37:06;;;;;;;11.80;9.38;;;;;;;7.98;66.23;94129.25;5004046;28;20470;-80
2020/12/15 03:39:31;;;;;;;14.63;9.60;;;;;;;7.97;66.34;94138.22;5001878;28;20046;-81
2020/12/15 03:41:57;;;;;;;16.13;11.05;;;;;;;7.96;66.11;94136.66;4991302;28;20440;-80
2020/12/15 03:44:23;;;;;;;15.88;10.95;;;;;;;7.99;66.02;94151.91;4989283;28;20049;-80
2020/12/15 03:46:48;;;;;;;14.82;10.43;;;;;;;7.92;66.46;94151.38;4998717;28;20033;-80
2020/12/15 03:49:14;;;;;;;15.55;10.80;;;;;;;7.95;66.57;94156.13;5004943;28;20018;-80
2020/12/15 03:51:40;;;;;;;25.48;15.38;;;;;;;7.91;66.73;94155.06;5001071;28;20133;-80
2020/12/15 03:54:05;;;;;;;18.77;12.98;;;;;;;7.96;66.54;94160.34;5001310;28;20145;-80
2020/12/15 03:56:31;;;;;;;19.45;12.77;;;;;;;7.80;66.85;94151.63;5000379;28;20505;-80
2020/12/15 03:58:56;;;;;;;27.95;19.42;;;;;;;7.91;66.70;94159.53;5012033;28;20396;-80
2020/12/15 04:01:23;;;;;;;22.52;16.05;;;;;;;7.85;66.56;94156.13;5003623;28;20230;-81
2020/12/15 04:03:48;;;;;;;18.35;12.98;;;;;;;7.96;66.60;94168.22;5018357;28;20053;-80
2020/12/15 04:06:14;;;;;;;15.98;11.60;;;;;;;7.97;66.39;94176.88;4996501;28;20046;-80
2020/12/15 04:08:41;;;;;;;15.07;11.65;;;;;;;8.06;66.36;94173.47;5006058;28;20133;-80
2020/12/15 04:11:07;;;;;;;16.30;11.73;;;;;;;7.93;66.14;94168.75;5005770;28;20473;-80
2020/12/15 04:13:32;;;;;;;18.13;12.60;;;;;;;7.98;66.07;94168.75;5006273;28;20072;-81
2020/12/15 04:15:58;;;;;;;16.92;11.45;;;;;;;7.98;66.05;94175.84;5006175;28;20053;-80
2020/12/15 04:18:23;;;;;;;14.90;10.55;;;;;;;7.96;66.25;94184.03;4991455;28;20042;-81
2020/12/15 04:20:51;;;;;;;11.25;9.07;;;;;;;7.76;66.35;94157.69;4995021;28;20066;-82
2020/12/15 04:23:19;;;;;;;12.85;9.98;;;;;;;7.87;66.59;94185.56;5005539;28;20326;-80
2020/12/15 04:25:57;;;;;;;13.02;8.88;;;;;;;7.95;66.64;94198.22;5004572;28;20018;-80
2020/12/15 04:28:23;;;;;;;11.73;8.68;;;;;;;7.95;66.50;94185.06;5007888;28;20030;-80
2020/12/15 04:30:48;;;;;;;12.43;9.02;;;;;;;7.99;66.55;94195.84;4988469;28;20049;-81
2020/12/15 04:33:14;;;;;;;10.82;8.02;;;;;;;7.89;66.44;94188.75;4997748;28;20124;-80
2020/12/15 04:35:40;;;;;;;15.57;10.32;;;;;;;7.95;66.56;94195.59;5003421;28;20042;-80
2020/12/15 04:38:06;;;;;;;13.15;10.20;;;;;;;8.00;66.56;94185.06;5003816;28;20410;-80
2020/12/15 04:40:33;;;;;;;11.98;8.55;;;;;;;8.05;66.51;94203.50;5005372;28;20080;-81
2020/12/15 04:43:01;;;;;;;11.30;8.80;;;;;;;8.02;66.25;94204.00;5003818;28;20056;-80
2020/12/15 04:45:26;;;;;;;11.25;8.85;;;;;;;7.99;66.01;94201.91;5005092;28;20503;-80
2020/12/15 04:47:59;;;;;;;14.15;9.85;;;;;;;7.98;65.92;94195.06;5003002;28;20060;-80
2020/12/15 04:50:32;;;;;;;13.48;10.07;;;;;;;8.13;65.79;94210.88;5004633;28;20374;-80
2020/12/15 04:53:02;;;;;;;13.02;9.07;;;;;;;8.04;65.70;94201.91;5001144;28;20034;-81
2020/12/15 04:55:28;;;;;;;11.48;9.23;;;;;;;7.99;65.82;94194.00;5005979;28;20096;-81
2020/12/15 04:57:55;;;;;;;11.32;7.97;;;;;;;8.10;65.53;94211.41;5001770;28;21699;-80
2020/12/15 05:00:21;;;;;;;10.40;8.40;;;;;;;8.07;65.72;94204.00;5002670;28;20042;-80
2020/12/15 05:02:52;;;;;;;11.55;8.73;;;;;;;8.17;65.80;94211.13;5003475;28;20556;-80
2020/12/15 05:05:20;;;;;;;11.23;8.57;;;;;;;8.18;65.90;94210.06;5004491;28;20029;-80
2020/12/15 05:07:46;;;;;;;11.30;8.23;;;;;;;8.23;65.80;94213.50;5002178;28;20099;-81
2020/12/15 05:10:17;;;;;;;12.68;8.20;;;;;;;8.25;65.85;94213.25;4999478;28;20117;-80
2020/12/15 05:12:44;;;;;;;9.30;7.38;;;;;;;8.30;65.62;94226.44;5016404;28;20050;-81
2020/12/15 05:15:14;;;;;;;11.27;7.47;;;;;;;8.26;65.23;94220.06;5002160;28;20076;-80
2020/12/15 05:17:41;;;;;;;8.93;6.35;;;;;;;8.37;64.90;94232.22;5003584;28;20088;-80
2020/12/15 05:20:14;;;;;;;10.13;6.70;;;;;;;8.34;64.67;94222.22;5004624;28;20054;-82
2020/12/15 05:22:48;;;;;;;10.60;6.93;;;;;;;8.42;64.58;94231.44;5001306;28;20029;-81
2020/12/15 05:25:29;;;;;;;8.25;6.53;;;;;;;8.44;64.66;94231.97;5021365;28;20038;-80
2020/12/15 05:27:58;;;;;;;9.68;6.82;;;;;;;8.51;64.59;94237.75;5002107;28;20049;-80
2020/12/15 05:30:24;;;;;;;7.60;6.03;;;;;;;8.40;64.72;94228.28;5002964;28;20088;-80
2020/12/15 05:32:55;;;;;;;8.75;7.50;;;;;;;8.55;64.38;94238.81;5001619;28;20053;-80
2020/12/15 05:35:29;;;;;;;7.72;6.63;;;;;;;8.58;64.53;94233.00;5015542;28;20129;-80
2020/12/15 05:37:56;;;;;;;8.05;5.97;;;;;;;8.59;64.44;94240.66;4998916;28;20569;-81
2020/12/15 05:40:22;;;;;;;9.70;7.13;;;;;;;8.57;64.24;94237.47;5004656;28;20434;-80
2020/12/15 05:42:54;;;;;;;9.05;7.55;;;;;;;8.64;64.15;94247.75;5003506;28;20045;-81
2020/12/15 05:45:21;;;;;;;13.70;8.95;;;;;;;8.54;64.29;94243.28;5002600;28;20129;-80
2020/12/15 05:47:48;;;;;;;40.53;20.30;;;;;;;8.60;64.30;94250.13;5002800;28;20151;-80
2020/12/15 05:50:25;;;;;;;30.30;16.05;;;;;;;8.57;64.11;94250.66;5002838;28;20428;-80
2020/12/15 05:53:02;;;;;;;12.35;8.25;;;;;;;8.62;64.44;94257.75;5014249;28;20052;-80
2020/12/15 05:55:28;;;;;;;7.97;6.90;;;;;;;8.57;64.43;94248.03;5004615;28;20581;-80
2020/12/15 05:57:55;;;;;;;10.68;8.90;;;;;;;8.57;64.37;94247.22;5001409;28;20057;-80
2020/12/15 06:00:21;;;;;;;12.65;9.48;;;;;;;8.53;64.54;94238.28;5002030;28;20053;-80
2020/12/15 06:03:03;;;;;;;13.20;9.20;;;;;;;8.54;64.63;94242.50;4992382;28;20458;-80
2020/12/15 06:05:31;;;;;;;12.48;9.80;;;;;;;8.57;64.67;94241.97;5003990;28;20048;-80
2020/12/15 06:07:58;;;;;;;14.82;10.18;;;;;;;8.64;64.89;94237.22;5002264;28;20030;-80
2020/12/15 06:10:26;;;;;;;14.40;11.10;;;;;;;8.51;64.74;94224.56;5005627;28;20095;-80
2020/12/15 06:12:53;;;;;;;18.08;11.43;;;;;;;8.65;64.75;94244.03;5004599;28;20526;-80
2020/12/15 06:15:19;;;;;;;13.70;10.20;;;;;;;8.69;64.96;94245.13;5004073;28;20172;-80
2020/12/15 06:17:49;;;;;;;21.35;14.05;;;;;;;8.72;65.16;94255.13;5004010;28;20493;-80
2020/12/15 06:20:19;;;;;;;24.13;14.82;;;;;;;8.73;65.21;94250.66;5020245;28;20065;-80
2020/12/15 06:22:52;;;;;;;14.70;9.85;;;;;;;8.78;64.89;94253.28;5003979;28;20153;-80
2020/12/15 06:25:31;;;;;;;19.50;12.23;;;;;;;8.81;64.92;94258.78;5020531;28;20029;-81
2020/12/15 06:28:09;;;;;;;19.00;11.93;;;;;;;8.83;65.00;94255.91;5002214;28;20514;-80
2020/12/15 06:30:37;;;;;;;15.50;11.88;;;;;;;8.86;65.07;94256.16;5007342;28;20061;-80
2020/12/15 06:33:07;;;;;;;20.08;12.50;;;;;;;8.86;65.10;94248.25;5006679;28;20136;-80
2020/12/15 06:35:34;;;;;;;19.80;10.98;;;;;;;8.82;64.86;94241.13;5007758;28;20486;-79
2020/12/15 06:38:01;;;;;;;15.10;10.52;;;;;;;8.91;64.77;94252.72;5005187;28;20590;-80
2020/12/15 06:40:38;;;;;;;13.82;9.65;;;;;;;8.98;64.13;94255.88;5008609;28;20056;-79
2020/12/15 06:43:04;;;;;;;13.57;8.95;;;;;;;8.97;63.91;94254.28;5007807;28;20066;-81
2020/12/15 06:45:29;;;;;;;11.77;8.27;;;;;;;9.01;63.83;94253.50;4990133;28;20085;-79
2020/12/15 06:48:05;;;;;;;16.35;9.00;;;;;;;9.06;63.60;94252.69;4992371;28;20577;-79
2020/12/15 06:50:45;;;;;;;19.98;13.00;;;;;;;9.12;64.16;94251.63;5006348;28;20042;-79
2020/12/15 06:53:13;;;;;;;19.58;12.40;;;;;;;9.12;64.21;94249.78;5005878;28;20030;-79
2020/12/15 06:55:39;;;;;;;29.90;14.65;;;;;;;9.12;64.36;94251.63;5004652;28;20025;-81
2020/12/15 06:58:04;;;;;;;20.40;12.00;;;;;;;9.19;64.69;94265.31;5004171;28;20407;-80
2020/12/15 07:00:38;;;;;;;16.05;12.27;;;;;;;9.20;64.36;94260.81;5020268;28;20113;-80
2020/12/15 07:03:06;;;;;;;16.42;12.85;;;;;;;9.22;64.16;94270.06;5005743;28;20041;-80
2020/12/15 07:05:33;;;;;;;16.50;12.07;;;;;;;9.23;64.18;94273.50;5001348;28;20046;-79
2020/12/15 07:08:04;;;;;;;15.73;11.85;;;;;;;9.32;64.04;94274.50;4987645;28;22493;-80
2020/12/15 07:10:30;;;;;;;17.65;12.90;;;;;;;9.39;63.92;94277.63;5005832;28;20516;-80
2020/12/15 07:12:59;;;;;;;15.40;10.82;;;;;;;9.45;63.98;94277.38;5004706;28;20050;-80
2020/12/15 07:15:25;;;;;;;20.50;14.32;;;;;;;9.52;63.45;94277.09;4989355;28;20462;-79
2020/12/15 07:17:51;;;;;;;8.98;6.78;;;;;;;9.61;63.17;94280.75;4992456;28;20060;-80
2020/12/15 07:20:22;;;;;;;6.20;4.07;;;;;;;9.65;60.90;94289.69;5004790;28;20049;-80
2020/12/15 07:22:48;;;;;;;10.82;7.70;;;;;;;9.70;60.96;94275.69;5002916;28;20073;-80
2020/12/15 07:25:15;;;;;;;12.95;8.38;;;;;;;9.84;61.15;94282.75;5006156;28;20048;-80
2020/12/15 07:27:42;;;;;;;14.43;8.63;;;;;;;9.80;61.51;94276.44;5017226;28;20427;-79
2020/12/15 07:30:09;;;;;;;6.55;5.40;;;;;;;9.96;60.98;94293.00;5003465;28;20076;-80
2020/12/15 07:32:36;;;;;;;8.50;5.50;;;;;;;9.99;60.42;94295.88;5004562;28;20030;-80
2020/12/15 07:35:13;;;;;;;10.50;7.00;;;;;;;10.02;60.40;94289.25;5002398;28;20045;-80
2020/12/15 07:37:40;;;;;;;10.43;7.20;;;;;;;10.03;60.60;94290.81;5007380;28;20026;-80
2020/12/15 07:40:08;;;;;;;4.50;3.63;;;;;;;10.08;60.29;94297.91;5008301;28;20458;-80
2020/12/15 07:42:34;;;;;;;5.70;4.20;;;;;;;10.13;59.51;94300.53;5018404;28;20043;-80
2020/12/15 07:45:03;;;;;;;14.88;7.25;;;;;;;10.08;59.35;94296.06;4985762;28;20052;-79
2020/12/15 07:47:29;;;;;;;8.95;6.80;;;;;;;10.22;59.11;94309.50;4992544;28;20494;-80
2020/12/15 07:49:56;;;;;;;9.98;7.18;;;;;;;10.26;59.33;94316.59;5008027;28;20045;-79
2020/12/15 07:52:31;;;;;;;12.80;7.38;;;;;;;10.30;60.09;94314.22;5009949;28;20029;-79
2020/12/15 07:55:02;;;;;;;5.05;4.03;;;;;;;10.23;58.93;94311.88;5006866;28;20379;-81
2020/12/15 07:57:32;;;;;;;3.10;2.80;;;;;;;10.26;58.79;94327.16;5003539;28;20050;-81
2020/12/15 08:00:00;;;;;;;2.70;2.50;;;;;;;10.17;58.18;94312.16;5000767;28;20222;-81
2020/12/15 08:02:26;;;;;;;3.15;2.85;;;;;;;10.23;58.34;94321.63;4993445;28;20502;-81
2020/12/15 08:04:51;;;;;;;2.83;2.63;;;;;;;10.26;58.25;94315.84;5019260;28;20034;-81
2020/12/15 08:07:18;;;;;;;3.35;3.05;;;;;;;10.31;58.00;94326.38;5002068;28;20026;-81
2020/12/15 08:09:47;;;;;;;3.53;3.05;;;;;;;10.22;58.05;94326.13;5017490;28;20038;-80
2020/12/15 08:12:13;;;;;;;2.90;2.50;;;;;;;10.16;57.88;94319.31;4985537;28;20407;-80
2020/12/15 08:14:40;;;;;;;4.18;3.53;;;;;;;10.17;57.35;94322.72;4992690;28;20037;-80
2020/12/15 08:17:13;;;;;;;5.93;3.92;;;;;;;10.23;57.07;94326.91;5006186;28;20647;-80
2020/12/15 08:19:40;;;;;;;8.05;5.38;;;;;;;10.26;57.55;94335.09;5008107;28;20029;-78
2020/12/15 08:22:06;;;;;;;3.22;2.75;;;;;;;10.08;57.00;94327.75;5005857;28;20125;-79
2020/12/15 08:24:36;;;;;;;2.90;2.63;;;;;;;10.00;56.81;94323.84;5003880;28;20467;-79
2020/12/15 08:27:01;;;;;;;3.35;3.05;;;;;;;10.09;57.00;94326.72;5005941;28;20026;-79
2020/12/15 08:29:28;;;;;;;3.53;3.22;;;;;;;10.20;57.23;94333.56;5021761;28;20033;-79
2020/12/15 08:31:54;;;;;;;3.55;3.20;;;;;;;10.22;56.84;94328.78;4988438;28;20113;-79
2020/12/15 08:34:20;;;;;;;3.22;2.83;;;;;;;10.26;56.92;94337.72;5008840;28;20121;-79
2020/12/15 08:36:53;;;;;;;3.35;3.00;;;;;;;10.28;56.42;94340.09;5004697;28;20038;-79
2020/12/15 08:39:22;;;;;;;5.07;4.03;;;;;;;10.35;56.82;94345.88;5021637;28;20141;-79
2020/12/15 08:41:53;;;;;;;4.55;4.10;;;;;;;10.29;57.05;94336.41;5006157;28;20494;-79
2020/12/15 08:44:20;;;;;;;4.07;3.63;;;;;;;10.31;57.18;94344.84;5006445;28;20128;-78
2020/12/15 08:46:49;;;;;;;5.75;5.13;;;;;;;10.18;56.50;94329.59;5018307;28;20025;-78
2020/12/15 08:49:16;;;;;;;4.53;4.03;;;;;;;10.21;56.72;94340.44;5008729;28;20026;-78
2020/12/15 08:51:47;;;;;;;6.47;4.97;;;;;;;10.37;57.10;94339.25;5004656;28;20117;-79
2020/12/15 08:54:13;;;;;;;5.78;4.72;;;;;;;10.46;56.92;94336.81;5006798;28;20730;-79
2020/12/15 08:56:39;;;;;;;6.05;4.10;;;;;;;10.55;57.57;94340.47;5017655;28;20562;-79
2020/12/15 08:59:19;;;;;;;5.38;4.63;;;;;;;10.68;58.19;94339.84;4991077;28;20061;-79
2020/12/15 09:01:45;;;;;;;5.22;4.28;;;;;;;10.77;58.30;94343.47;5003203;28;20026;-79
2020/12/15 09:04:12;;;;;;;7.80;6.45;;;;;;;10.74;57.62;94346.69;5008010;28;20538;-79
2020/12/15 09:06:39;;;;;;;8.40;6.55;;;;;;;10.66;56.13;94331.41;5004708;28;20053;-79
2020/12/15 09:09:06;;;;;;;10.00;7.20;;;;;;;10.75;56.21;94339.56;5005211;28;20470;-79
2020/12/15 09:11:32;;;;;;;6.65;6.05;;;;;;;10.80;55.49;94342.91;5005678;28;20084;-79
2020/12/15 09:14:06;;;;;;;7.88;6.47;;;;;;;10.91;55.50;94343.63;5003626;28;20034;-78
2020/12/15 09:16:34;;;;;;;10.15;9.05;;;;;;;10.84;55.95;94333.41;5019866;28;20022;-78
2020/12/15 09:19:16;;;;;;;10.25;8.60;;;;;;;10.80;55.35;94342.91;5006696;28;20104;-78
2020/12/15 09:21:53;;;;;;;9.18;6.85;;;;;;;10.74;55.10;94332.69;5004709;28;20041;-79
2020/12/15 09:24:19;;;;;;;9.13;7.25;;;;;;;10.81;55.36;94333.13;5001672;28;20133;-78
2020/12/15 09:26:44;;;;;;;15.35;9.38;;;;;;;10.94;55.73;94342.31;5005869;28;20048;-78
2020/12/15 09:29:11;;;;;;;11.68;7.97;;;;;;;11.02;56.07;94341.69;5004339;28;20145;-79
2020/12/15 09:31:39;;;;;;;8.32;6.97;;;;;;;11.05;56.40;94341.94;5007432;28;20030;-78
2020/12/15 09:34:05;;;;;;;12.65;8.05;;;;;;;11.10;56.83;94336.59;5005141;28;20037;-79
2020/12/15 09:36:31;;;;;;;9.75;6.88;;;;;;;11.14;57.05;94326.28;5002121;28;20041;-79
2020/12/15 09:38:57;;;;;;;13.45;7.75;;;;;;;11.09;57.09;94328.97;5004865;28;20033;-78
2020/12/15 09:41:23;;;;;;;8.38;5.97;;;;;;;11.14;57.33;94331.56;5005938;28;20073;-79
2020/12/15 09:43:48;;;;;;;10.77;7.15;;;;;;;11.21;56.91;94326.72;5017749;28;20041;-78
2020/12/15 09:46:14;;;;;;;11.15;6.75;;;;;;;11.24;56.77;94326.16;5006989;28;20477;-78
2020/12/15 09:48:39;;;;;;;8.88;6.72;;;;;;;11.35;56.22;94325.00;5004768;28;20115;-78
2020/12/15 09:51:05;;;;;;;13.15;8.70;;;;;;;11.54;56.29;94328.50;5004115;28;20045;-78
2020/12/15 09:53:31;;;;;;;19.08;10.52;;;;;;;11.75;56.25;94318.50;5001484;28;20403;-78
2020/12/15 09:55:57;;;;;;;6.93;5.80;;;;;;;11.91;55.23;94322.56;5003051;28;20026;-78
2020/12/15 09:58:23;;;;;;;6.63;4.65;;;;;;;11.99;53.54;94315.84;5007896;28;20065;-78
2020/12/15 10:00:49;;;;;;;5.75;4.53;;;;;;;12.15;53.11;94309.28;5001953;28;20040;-78
2020/12/15 10:03:14;;;;;;;27.65;9.45;;;;;;;12.25;52.83;94309.13;5002909;28;20042;-78
2020/12/15 10:05:41;;;;;;;10.93;8.32;;;;;;;12.28;53.41;94297.94;5003552;28;20049;-78
2020/12/15 10:08:07;;;;;;;10.88;8.48;;;;;;;12.46;53.68;94307.75;5003779;28;20033;-78
2020/12/15 10:10:32;;;;;;;12.57;7.43;;;;;;;12.57;53.46;94305.75;5005587;28;20109;-78
2020/12/15 10:12:58;;;;;;;8.93;7.60;;;;;;;12.61;52.54;94300.69;5003868;28;20048;-79
2020/12/15 10:15:24;;;;;;;28.80;13.65;;;;;;;12.55;51.90;94303.41;5019420;28;20033;-78
2020/12/15 10:17:50;;;;;;;12.00;10.05;;;;;;;12.50;52.32;94306.13;5005206;28;20047;-78
2020/12/15 10:20:15;;;;;;;13.85;9.00;;;;;;;12.43;52.68;94305.69;5003969;28;20513;-78
2020/12/15 10:22:41;;;;;;;111.60;52.85;;;;;;;12.45;52.13;94308.06;5003549;28;20041;-78
2020/12/15 10:25:07;;;;;;;11.90;8.95;;;;;;;12.53;52.58;94307.41;5004744;28;20505;-78
2020/12/15 10:27:32;;;;;;;17.70;12.00;;;;;;;12.65;52.60;94307.78;5003340;28;20049;-78
2020/12/15 10:29:58;;;;;;;14.60;10.60;;;;;;;12.64;52.17;94310.69;5003207;28;20511;-78
2020/12/15 10:32:24;;;;;;;14.80;11.85;;;;;;;12.65;52.23;94301.69;5004343;28;20494;-79
2020/12/15 10:34:50;;;;;;;17.33;12.75;;;;;;;12.78;51.92;94303.59;5004547;28;20482;-78
2020/12/15 10:37:16;;;;;;;15.68;11.90;;;;;;;12.87;52.02;94305.28;5006956;28;20025;-78
2020/12/15 10:39:42;;;;;;;15.32;12.45;;;;;;;13.00;51.58;94298.44;5003072;28;20049;-78
2020/12/15 10:42:07;;;;;;;15.45;12.30;;;;;;;13.11;50.82;94288.44;5002751;28;20446;-78
2020/12/15 10:44:33;;;;;;;16.25;12.10;;;;;;;13.33;51.41;94285.97;5005023;28;20042;-78
2020/12/15 10:47:00;;;;;;;15.00;10.52;;;;;;;13.59;50.56;94287.06;5001818;28;20125;-78
2020/12/15 10:49:27;;;;;;;14.82;11.50;;;;;;;13.68;49.17;94281.88;5006050;28;20080;-78
2020/12/15 10:51:53;;;;;;;16.23;12.07;;;;;;;13.80;49.08;94284.78;5018338;28;20062;-78
2020/12/15 10:54:18;;;;;;;14.38;11.05;;;;;;;14.04;49.32;94279.25;5002555;28;20089;-78
2020/12/15 10:56:44;;;;;;;16.75;10.77;;;;;;;14.26;50.06;94282.00;5002285;28;20699;-78
2020/12/15 10:59:09;;;;;;;17.00;9.65;;;;;;;14.43;50.34;94273.38;5002132;28;20575;-78
2020/12/15 11:01:35;;;;;;;12.23;9.00;;;;;;;14.63;49.10;94280.91;5005817;28;20018;-78
2020/12/15 11:04:01;;;;;;;12.90;8.38;;;;;;;14.65;48.39;94257.47;5002967;28;20050;-78
2020/12/15 11:06:27;;;;;;;17.08;8.93;;;;;;;14.63;48.22;94264.94;5002291;28;20045;-78
2020/12/15 11:08:53;;;;;;;14.98;10.38;;;;;;;14.43;48.11;94254.78;5002513;28;20038;-78
2020/12/15 11:11:19;;;;;;;12.65;9.15;;;;;;;14.28;48.19;94263.84;5002969;28;20070;-78
2020/12/15 11:13:46;;;;;;;13.98;9.48;;;;;;;14.04;48.53;94250.81;5001084;28;20022;-78
2020/12/15 11:16:11;;;;;;;10.20;7.82;;;;;;;13.96;49.00;94261.38;5006155;28;20033;-78
2020/12/15 11:18:37;;;;;;;10.10;7.53;;;;;;;13.84;49.37;94264.53;5003425;28;20049;-78
2020/12/15 11:21:02;;;;;;;14.50;7.65;;;;;;;13.69;50.28;94256.84;5003192;28;20659;-78
2020/12/15 11:23:28;;;;;;;11.27;8.20;;;;;;;13.60;50.35;94253.31;5002861;28;20124;-78
2020/12/15 11:25:53;;;;;;;12.60;8.57;;;;;;;13.51;49.70;94249.78;5002681;28;20379;-78
2020/12/15 11:28:19;;;;;;;14.07;9.00;;;;;;;13.31;49.62;94251.75;5007440;28;20026;-78